Time;durP1;ratioP1;P1;durP2;ratioP2;P2;SDS_P1;SDS_P2;PMS_P1;PMS_P2;Temp;Humidity;BMP_temperature;BMP_pressure;BME280_temperature;BME280_humidity;BME280_pressure;Samples;Min_cycle;Max_cycle;Signal;HPM_P1;HPM_P2
2021/09/15 00:00:00;;;;;;;13.68;7.82;;;512.80;2380.80;;;;;;6307988;22;20003;-64
2021/09/15 00:02:25;;;;;;;14.63;7.60;;;512.80;2380.80;;;;;;6307531;22;20045;-70
2021/09/15 00:04:51;;;;;;;10.68;7.63;;;512.80;2380.80;;;;;;6306853;22;20038;-73
2021/09/15 00:07:17;;;;;;;12.98;7.65;;;512.80;2380.80;;;;;;6280450;22;20053;-68
2021/09/15 00:09:42;;;;;;;14.00;7.75;;;512.70;2380.80;;;;;;6305229;22;20007;-66
2021/09/15 00:12:08;;;;;;;11.00;7.88;;;512.70;2380.80;;;;;;6307789;22;20007;-64
2021/09/15 00:14:34;;;;;;;10.13;7.40;;;512.70;2380.80;;;;;;6251855;22;20014;-65
2021/09/15 00:17:00;;;;;;;11.23;7.78;;;512.70;2380.80;;;;;;6308287;22;20432;-69
2021/09/15 00:19:26;;;;;;;13.43;7.80;;;512.60;2380.80;;;;;;6307463;22;19999;-68
2021/09/15 00:21:52;;;;;;;12.57;7.78;;;512.60;2380.80;;;;;;6306733;22;20363;-66
2021/09/15 00:24:18;;;;;;;11.93;8.45;;;512.60;2380.80;;;;;;6280003;22;19999;-64
2021/09/15 00:26:44;;;;;;;12.68;7.95;;;512.60;2380.80;;;;;;6304568;22;20417;-65
2021/09/15 00:29:09;;;;;;;13.88;7.97;;;512.60;2380.80;;;;;;6306664;22;20022;-68
2021/09/15 00:31:35;;;;;;;11.23;7.85;;;512.60;2380.80;;;;;;6305618;22;20011;-66
2021/09/15 00:34:01;;;;;;;13.02;7.97;;;512.50;2380.80;;;;;;6306825;22;20003;-65
2021/09/15 00:36:26;;;;;;;10.73;7.30;;;512.50;2380.80;;;;;;6306999;22;20026;-67
2021/09/15 00:38:52;;;;;;;10.35;7.47;;;512.40;2380.80;;;;;;6306103;22;19999;-70
2021/09/15 00:41:18;;;;;;;14.38;7.78;;;512.40;2380.80;;;;;;6306306;22;20011;-69
2021/09/15 00:44:01;;;;;;;11.88;7.95;;;512.40;2380.80;;;;;;6306376;22;20018;-65
2021/09/15 00:46:28;;;;;;;11.35;7.90;;;512.40;2380.80;;;;;;6306821;22;20076;-67
2021/09/15 00:48:54;;;;;;;11.15;7.47;;;512.50;2380.80;;;;;;6279095;22;20010;-67
2021/09/15 00:51:20;;;;;;;11.27;7.55;;;512.30;2380.80;;;;;;6306542;22;20015;-66
2021/09/15 00:53:47;;;;;;;16.83;8.25;;;512.30;2380.80;;;;;;6306452;22;19999;-67
2021/09/15 00:56:12;;;;;;;14.13;8.40;;;512.30;2380.80;;;;;;6306259;22;19995;-66
2021/09/15 00:58:38;;;;;;;12.18;8.75;;;512.20;2380.80;;;;;;6305910;22;19999;-66
2021/09/15 01:01:04;;;;;;;11.70;8.07;;;512.30;2380.80;;;;;;6306520;22;20360;-64
2021/09/15 01:03:30;;;;;;;12.50;8.55;;;512.20;2380.80;;;;;;6307353;22;20010;-64
2021/09/15 01:05:56;;;;;;;14.35;8.40;;;512.20;2380.80;;;;;;6252143;22;20015;-65
2021/09/15 01:08:24;;;;;;;13.88;8.57;;;512.20;2380.80;;;;;;6278464;22;20113;-64
2021/09/15 01:10:50;;;;;;;12.55;7.93;;;512.20;2380.80;;;;;;6305386;22;20022;-63
2021/09/15 01:13:16;;;;;;;12.48;7.88;;;512.10;2380.80;;;;;;6306646;22;20448;-64
2021/09/15 01:15:41;;;;;;;12.73;8.18;;;512.10;2380.80;;;;;;6305184;22;19996;-63
2021/09/15 01:18:14;;;;;;;15.40;8.80;;;512.10;2380.80;;;;;;6307253;22;20007;-65
2021/09/15 01:20:40;;;;;;;13.15;7.80;;;512.00;2380.80;;;;;;6277871;22;20110;-70
2021/09/15 01:23:06;;;;;;;13.18;8.32;;;512.00;2380.80;;;;;;6306540;22;20486;-63
2021/09/15 01:25:31;;;;;;;10.38;8.07;;;512.00;2380.80;;;;;;6305827;22;20003;-65
2021/09/15 01:27:57;;;;;;;13.23;8.23;;;512.00;2380.80;;;;;;6279189;22;19999;-63
2021/09/15 01:30:23;;;;;;;12.20;8.27;;;487.30;2380.80;;;;;;6306177;22;20065;-65
2021/09/15 01:32:49;;;;;;;10.45;7.90;;;487.30;2380.80;;;;;;6305528;22;20077;-65
2021/09/15 01:35:14;;;;;;;15.00;8.45;;;487.30;2380.80;;;;;;6280155;22;20007;-64
2021/09/15 01:37:40;;;;;;;12.80;7.78;;;487.20;2380.80;;;;;;6279347;22;20006;-64
2021/09/15 01:40:07;;;;;;;11.95;7.80;;;487.20;2380.80;;;;;;6308756;22;20024;-64
2021/09/15 01:42:33;;;;;;;12.02;8.32;;;487.00;2380.80;;;;;;6307640;22;20000;-63
2021/09/15 01:44:58;;;;;;;13.35;8.00;;;487.00;2380.80;;;;;;6307516;22;20429;-65
2021/09/15 01:47:25;;;;;;;14.43;8.82;;;486.90;2380.80;;;;;;6308124;22;19991;-63
2021/09/15 01:49:51;;;;;;;14.05;8.68;;;486.90;2380.80;;;;;;6309162;22;19999;-73
2021/09/15 01:52:17;;;;;;;16.05;9.07;;;486.90;2380.80;;;;;;6309052;22;20019;-71
2021/09/15 01:54:44;;;;;;;14.50;9.25;;;486.80;2380.80;;;;;;6309114;22;20070;-73
2021/09/15 01:57:10;;;;;;;11.80;9.13;;;486.70;2380.80;;;;;;6308913;22;20334;-74
2021/09/15 02:13:36;;;;;;;13.32;9.57;;;486.70;2380.80;;;;;;5151182;27;20369;-66
2021/09/15 02:16:02;;;;;;;14.55;9.68;;;486.70;2380.80;;;;;;5151347;27;20023;-68
2021/09/15 02:18:28;;;;;;;14.43;9.38;;;486.80;2380.80;;;;;;5151074;27;20464;-66
2021/09/15 02:20:53;;;;;;;16.45;9.30;;;486.80;2380.80;;;;;;5150111;27;20019;-68
2021/09/15 02:23:19;;;;;;;14.60;9.45;;;486.60;2380.80;;;;;;5151008;27;20442;-67
2021/09/15 02:25:45;;;;;;;17.38;9.30;;;486.50;2380.80;;;;;;5150836;27;20023;-67
2021/09/15 02:28:10;;;;;;;15.82;9.95;;;486.40;2380.80;;;;;;5150674;27;20035;-66
2021/09/15 02:30:36;;;;;;;20.67;10.07;;;461.60;2380.80;;;;;;5151021;27;20050;-67
2021/09/15 02:33:02;;;;;;;14.57;9.77;;;461.50;2380.80;;;;;;5150401;27;20476;-67
2021/09/15 02:35:28;;;;;;;14.80;9.82;;;461.40;2380.80;;;;;;5150129;27;20027;-68
2021/09/15 02:37:53;;;;;;;14.38;9.70;;;461.30;2380.80;;;;;;5150156;27;20064;-68
2021/09/15 02:40:19;;;;;;;16.73;10.27;;;461.20;2380.80;;;;;;5150806;27;20015;-69
2021/09/15 02:42:44;;;;;;;17.60;10.75;;;461.10;2380.80;;;;;;5150176;27;20039;-68
2021/09/15 02:45:10;;;;;;;15.77;10.27;;;461.10;2380.80;;;;;;5149920;27;20015;-68
2021/09/15 02:47:36;;;;;;;17.15;10.45;;;461.10;2380.80;;;;;;5150791;27;20019;-68
2021/09/15 02:50:02;;;;;;;14.43;10.05;;;461.10;2380.80;;;;;;5150409;27;20487;-66
2021/09/15 02:52:28;;;;;;;16.75;10.13;;;461.10;2380.80;;;;;;5150371;27;20531;-66
2021/09/15 02:54:53;;;;;;;16.23;10.18;;;461.10;2380.80;;;;;;5150442;27;20114;-67
2021/09/15 02:57:19;;;;;;;16.50;10.57;;;461.10;2380.80;;;;;;5150480;27;20026;-67
2021/09/15 02:59:45;;;;;;;20.42;10.57;;;461.10;2380.80;;;;;;5150424;27;20022;-68
2021/09/15 03:02:10;;;;;;;14.93;10.35;;;461.00;2380.80;;;;;;5149670;27;20031;-68
2021/09/15 03:04:36;;;;;;;16.90;10.30;;;461.00;2380.80;;;;;;5150079;27;20007;-68
2021/09/15 03:07:02;;;;;;;16.48;10.60;;;461.00;2380.80;;;;;;5131607;27;20022;-68
2021/09/15 03:09:27;;;;;;;17.65;10.82;;;460.90;2380.80;;;;;;5150627;27;20080;-67
2021/09/15 03:11:53;;;;;;;17.58;11.27;;;461.00;2380.80;;;;;;5151356;27;20039;-67
2021/09/15 03:14:19;;;;;;;18.13;11.18;;;461.10;2380.80;;;;;;5137975;27;20031;-68
2021/09/15 03:16:44;;;;;;;16.35;11.07;;;461.00;2380.80;;;;;;5136020;27;20130;-69
2021/09/15 03:19:10;;;;;;;14.25;10.30;;;461.00;2380.80;;;;;;5136169;27;20031;-68
2021/09/15 03:21:36;;;;;;;17.27;9.93;;;461.00;2380.80;;;;;;5148513;27;20438;-68
2021/09/15 03:24:02;;;;;;;17.80;10.35;;;461.00;2380.80;;;;;;5135927;27;20068;-68
2021/09/15 03:26:27;;;;;;;13.80;10.18;;;461.00;2380.80;;;;;;5135536;27;20069;-68
2021/09/15 03:28:53;;;;;;;18.52;10.50;;;460.90;2380.80;;;;;;5135769;27;20020;-66
2021/09/15 03:31:19;;;;;;;14.55;9.32;;;460.90;2380.80;;;;;;5136040;27;20023;-68
2021/09/15 03:33:44;;;;;;;12.43;9.43;;;460.80;2380.80;;;;;;5135681;27;20019;-67
2021/09/15 03:36:10;;;;;;;15.23;9.52;;;460.80;2380.80;;;;;;5135747;27;20030;-67
2021/09/15 03:38:36;;;;;;;19.23;9.65;;;460.80;2380.80;;;;;;5133101;27;20476;-68
2021/09/15 03:41:02;;;;;;;17.02;11.05;;;460.80;2380.80;;;;;;5135377;27;20023;-68
2021/09/15 03:43:28;;;;;;;18.52;14.80;;;436.00;2355.20;;;;;;5135533;27;20114;-68
2021/09/15 03:45:53;;;;;;;18.58;11.43;;;436.10;2355.20;;;;;;5136264;27;20096;-68
2021/09/15 03:48:19;;;;;;;15.48;11.88;;;436.00;2355.20;;;;;;5117665;27;20050;-67
2021/09/15 03:50:45;;;;;;;17.98;11.38;;;436.00;2355.20;;;;;;5137064;27;20019;-67
2021/09/15 03:53:10;;;;;;;20.15;12.77;;;435.90;2355.20;;;;;;5136818;27;20026;-67
2021/09/15 03:55:36;;;;;;;17.38;12.25;;;435.90;2355.20;;;;;;5136979;27;20030;-67
2021/09/15 03:58:02;;;;;;;18.65;12.02;;;435.80;2355.20;;;;;;5136698;27;20490;-68
2021/09/15 04:00:28;;;;;;;16.00;11.50;;;435.90;2355.20;;;;;;5136694;27;20031;-68
2021/09/15 04:02:54;;;;;;;19.70;12.15;;;435.90;2355.20;;;;;;5118092;27;20035;-66
2021/09/15 04:05:19;;;;;;;17.55;11.07;;;435.90;2355.20;;;;;;5136498;27;20426;-67
2021/09/15 04:07:45;;;;;;;16.85;11.50;;;435.90;2355.20;;;;;;5136701;27;20110;-70
2021/09/15 04:10:11;;;;;;;21.92;11.60;;;436.00;2355.20;;;;;;5135997;27;20122;-67
2021/09/15 04:12:37;;;;;;;18.55;11.77;;;435.90;2355.20;;;;;;5136135;27;20050;-68
2021/09/15 04:15:04;;;;;;;20.17;12.65;;;435.90;2355.20;;;;;;5136654;27;20047;-68
2021/09/15 04:17:29;;;;;;;20.88;12.60;;;436.00;2355.20;;;;;;5136374;27;20038;-68
2021/09/15 04:19:55;;;;;;;21.30;12.38;;;436.00;2355.20;;;;;;5136580;27;20015;-68
2021/09/15 04:22:21;;;;;;;23.02;12.93;;;436.00;2355.20;;;;;;5136411;27;20512;-68
2021/09/15 04:32:58;;;;;;;18.77;12.75;;;435.80;2355.20;;;;;;5136270;27;20042;-67
2021/09/15 04:35:24;;;;;;;22.23;14.10;;;435.90;2355.20;;;;;;5136036;27;20015;-68
2021/09/15 04:37:50;;;;;;;22.65;13.68;;;435.90;2355.20;;;;;;5135984;27;20027;-68
2021/09/15 04:40:16;;;;;;;19.02;13.82;;;435.90;2355.20;;;;;;5135842;27;20026;-69
2021/09/15 04:42:41;;;;;;;21.55;13.63;;;435.90;2355.20;;;;;;5134931;27;20031;-68
2021/09/15 04:45:07;;;;;;;23.50;12.90;;;436.00;2355.20;;;;;;5135035;27;20363;-68
2021/09/15 04:47:33;;;;;;;18.15;12.23;;;436.00;2355.20;;;;;;5135875;27;20471;-69
2021/09/15 04:49:59;;;;;;;22.50;13.27;;;436.10;2355.20;;;;;;5135470;27;20054;-69
2021/09/15 04:52:25;;;;;;;22.55;13.23;;;436.00;2355.20;;;;;;5135783;27;20023;-68
2021/09/15 04:54:51;;;;;;;19.38;13.50;;;460.80;2380.80;;;;;;5135615;27;20046;-67
2021/09/15 04:57:17;;;;;;;21.25;14.23;;;460.80;2380.80;;;;;;5134677;27;20027;-66
2021/09/15 04:59:43;;;;;;;21.35;14.13;;;460.90;2380.80;;;;;;5134446;27;20019;-66
2021/09/15 05:02:09;;;;;;;23.08;14.10;;;461.00;2380.80;;;;;;5134066;27;20118;-66
2021/09/15 05:04:34;;;;;;;20.33;13.82;;;461.00;2380.80;;;;;;5134576;27;20027;-67
2021/09/15 05:07:00;;;;;;;18.67;14.00;;;461.10;2380.80;;;;;;5134475;27;20030;-70
2021/09/15 05:09:26;;;;;;;27.50;14.38;;;461.10;2380.80;;;;;;5134562;27;20027;-68
2021/09/15 05:11:52;;;;;;;24.80;14.20;;;461.10;2380.80;;;;;;5135155;27;20046;-67
2021/09/15 05:14:18;;;;;;;20.20;13.85;;;461.20;2380.80;;;;;;5135078;27;20020;-70
2021/09/15 05:16:43;;;;;;;24.52;13.68;;;461.30;2380.80;;;;;;5135214;27;20520;-71
2021/09/15 05:19:09;;;;;;;20.77;14.23;;;461.40;2380.80;;;;;;5134292;27;20038;-69
2021/09/15 05:21:35;;;;;;;19.17;14.10;;;461.40;2380.80;;;;;;5134336;27;20491;-71
2021/09/15 05:24:01;;;;;;;22.15;14.48;;;461.50;2380.80;;;;;;5134135;27;20031;-69
2021/09/15 05:26:28;;;;;;;24.10;14.82;;;461.60;2380.80;;;;;;5115925;27;20027;-70
2021/09/15 05:28:53;;;;;;;20.60;14.30;;;461.60;2380.80;;;;;;5133923;27;20099;-69
2021/09/15 05:31:19;;;;;;;21.45;14.02;;;461.60;2380.80;;;;;;5133465;27;20134;-70
2021/09/15 05:33:45;;;;;;;19.92;14.20;;;461.60;2380.80;;;;;;5132719;27;20034;-69
2021/09/15 05:36:11;;;;;;;20.55;13.95;;;461.70;2380.80;;;;;;5133318;27;20023;-69
2021/09/15 05:38:36;;;;;;;18.98;13.63;;;486.40;2380.80;;;;;;5133840;27;20099;-69
2021/09/15 05:41:02;;;;;;;24.02;13.50;;;486.40;2380.80;;;;;;5130601;27;20347;-71
2021/09/15 05:43:28;;;;;;;23.52;14.10;;;486.40;2380.80;;;;;;5133011;27;20047;-71
2021/09/15 05:45:54;;;;;;;20.30;13.52;;;486.60;2380.80;;;;;;5133522;27;20027;-72
2021/09/15 05:48:20;;;;;;;19.30;13.05;;;486.60;2380.80;;;;;;5134316;27;20483;-71
2021/09/15 05:50:46;;;;;;;24.13;14.45;;;486.70;2380.80;;;;;;5112137;27;20130;-70
2021/09/15 05:53:15;;;;;;;21.48;14.52;;;486.70;2380.80;;;;;;5113497;27;20158;-69
2021/09/15 05:55:41;;;;;;;23.00;14.75;;;486.90;2380.80;;;;;;5114499;28;20076;-69
2021/09/15 05:58:06;;;;;;;25.63;14.50;;;486.90;2380.80;;;;;;5128615;27;20016;-67
2021/09/15 06:00:32;;;;;;;25.45;13.90;;;486.90;2380.80;;;;;;5112092;27;20043;-68
2021/09/15 06:03:02;;;;;;;21.90;14.45;;;486.90;2380.80;;;;;;5124478;28;20086;-67
2021/09/15 06:05:28;;;;;;;20.75;13.98;;;487.10;2380.80;;;;;;5126943;27;20033;-70
2021/09/15 06:07:54;;;;;;;21.92;13.45;;;487.20;2380.80;;;;;;5132840;28;20055;-66
2021/09/15 06:10:22;;;;;;;22.42;14.00;;;512.00;2380.80;;;;;;5113435;28;20103;-68
2021/09/15 06:12:51;;;;;;;18.70;13.05;;;512.10;2380.80;;;;;;5132594;28;20085;-69
2021/09/15 06:15:18;;;;;;;22.30;13.40;;;512.30;2380.80;;;;;;5131710;27;20043;-69
2021/09/15 06:17:43;;;;;;;20.88;13.60;;;512.40;2380.80;;;;;;5132640;28;20041;-71
2021/09/15 06:20:10;;;;;;;18.13;13.15;;;512.60;2380.80;;;;;;5131351;27;20039;-72
2021/09/15 06:22:35;;;;;;;20.75;12.25;;;512.80;2380.80;;;;;;5132581;28;20551;-69
2021/09/15 06:25:02;;;;;;;19.45;13.02;;;537.60;2406.40;;;;;;5132037;27;20027;-76
2021/09/15 06:27:28;;;;;;;18.77;12.50;;;537.70;2406.40;;;;;;5132781;27;20061;-71
2021/09/15 06:29:54;;;;;;;18.05;12.13;;;537.90;2406.40;;;;;;5132087;27;20357;-68
2021/09/15 06:32:21;;;;;;;20.02;12.07;;;538.00;2406.40;;;;;;5132006;27;20023;-70
2021/09/15 06:34:47;;;;;;;18.73;11.60;;;538.10;2406.40;;;;;;5131991;27;20466;-68
2021/09/15 06:37:16;;;;;;;13.95;11.18;;;538.40;2406.40;;;;;;5132079;27;20027;-71
2021/09/15 06:39:42;;;;;;;16.23;10.80;;;538.50;2406.40;;;;;;5132370;27;20031;-71
2021/09/15 06:42:08;;;;;;;15.95;10.40;;;563.30;2432.00;;;;;;5131861;28;20039;-70
2021/09/15 06:44:34;;;;;;;15.02;9.98;;;563.50;2432.00;;;;;;5132372;27;20035;-71
2021/09/15 06:47:00;;;;;;;15.77;10.02;;;563.70;2432.00;;;;;;5132213;27;20368;-69
2021/09/15 06:49:26;;;;;;;14.77;10.55;;;588.80;2432.00;;;;;;5134634;27;20042;-72
2021/09/15 06:51:52;;;;;;;17.10;10.73;;;589.30;2355.20;;;;;;5136436;27;20098;-72
2021/09/15 06:54:17;;;;;;;13.63;10.38;;;614.50;2278.40;;;;;;5135467;27;20470;-71
2021/09/15 06:56:45;;;;;;;18.35;11.40;;;640.00;2150.40;;;;;;5117466;27;20039;-71
2021/09/15 06:59:11;;;;;;;12.93;10.48;;;665.80;1971.20;;;;;;5135269;27;20349;-71
2021/09/15 07:01:37;;;;;;;17.15;9.57;;;691.60;1817.60;;;;;;5117362;27;20115;-71
2021/09/15 07:04:04;;;;;;;12.32;8.82;;;717.30;1766.40;;;;;;5116051;27;20031;-71
2021/09/15 07:06:30;;;;;;;13.77;8.55;;;742.70;1612.80;;;;;;5136572;27;20027;-72
2021/09/15 07:08:55;;;;;;;14.70;8.23;;;743.00;1561.60;;;;;;5136380;27;20048;-72
2021/09/15 07:11:22;;;;;;;9.60;7.82;;;743.10;1561.60;;;;;;5135572;27;20023;-73
2021/09/15 07:13:48;;;;;;;10.82;7.50;;;742.70;1561.60;;;;;;5135800;27;20034;-72
2021/09/15 07:16:14;;;;;;;12.55;7.80;;;742.70;1612.80;;;;;;5116853;27;20024;-72
2021/09/15 07:18:40;;;;;;;12.05;8.93;;;742.70;1561.60;;;;;;5135329;27;20023;-72
2021/09/15 07:21:07;;;;;;;12.25;9.07;;;742.40;1536.00;;;;;;5127651;27;20047;-75
2021/09/15 07:23:34;;;;;;;13.98;9.70;;;717.70;1561.60;;;;;;5135214;27;20055;-74
2021/09/15 07:25:59;;;;;;;11.77;9.45;;;717.40;1587.20;;;;;;5133783;27;20038;-72
2021/09/15 07:28:26;;;;;;;14.57;8.55;;;717.30;1587.20;;;;;;5136908;27;20023;-72
2021/09/15 07:30:52;;;;;;;11.02;7.50;;;717.00;1638.40;;;;;;5136208;27;20031;-72
2021/09/15 07:33:21;;;;;;;11.30;7.28;;;692.10;1638.40;;;;;;5135333;27;20252;-73
2021/09/15 07:35:47;;;;;;;12.93;7.40;;;691.80;1664.00;;;;;;5117263;27;20043;-72
2021/09/15 07:38:13;;;;;;;11.20;7.60;;;691.70;1638.40;;;;;;5114379;28;20027;-73
2021/09/15 07:40:39;;;;;;;11.70;7.82;;;691.70;1638.40;;;;;;5115109;27;20035;-74
2021/09/15 07:43:05;;;;;;;11.10;7.10;;;691.60;1612.80;;;;;;5114356;28;20035;-74
2021/09/15 07:45:30;;;;;;;16.58;12.07;;;691.50;1612.80;;;;;;5114975;27;20032;-73
2021/09/15 07:47:57;;;;;;;19.90;14.98;;;691.40;1612.80;;;;;;5114755;28;20032;-70
2021/09/15 07:50:26;;;;;;;9.50;7.10;;;691.30;1587.20;;;;;;5115150;27;20023;-73
2021/09/15 07:52:52;;;;;;;8.82;6.47;;;691.50;1612.80;;;;;;5115234;28;20047;-73
2021/09/15 07:55:18;;;;;;;11.07;5.85;;;691.60;1612.80;;;;;;5122675;27;20062;-73
2021/09/15 07:57:44;;;;;;;7.50;6.13;;;691.70;1612.80;;;;;;5135397;27;20027;-73
2021/09/15 08:00:11;;;;;;;6.63;5.63;;;691.80;1612.80;;;;;;5116029;27;20543;-73
2021/09/15 08:02:37;;;;;;;9.18;5.60;;;692.00;1561.60;;;;;;5135525;27;20476;-73
2021/09/15 08:05:04;;;;;;;9.05;5.55;;;692.00;1561.60;;;;;;5134316;27;20065;-73
2021/09/15 08:07:30;;;;;;;6.60;5.35;;;692.10;1536.00;;;;;;5117364;27;20114;-72
2021/09/15 08:09:56;;;;;;;9.05;5.70;;;717.00;1536.00;;;;;;5135131;27;20058;-72
2021/09/15 08:12:21;;;;;;;8.90;5.85;;;717.10;1536.00;;;;;;5133769;27;20124;-71
2021/09/15 08:14:47;;;;;;;7.47;5.32;;;717.30;1536.00;;;;;;5135013;27;20045;-72
2021/09/15 08:17:13;;;;;;;6.65;5.47;;;717.50;1510.40;;;;;;5133926;27;20452;-71
2021/09/15 08:19:39;;;;;;;10.07;5.18;;;742.40;1536.00;;;;;;5134680;27;20034;-71
2021/09/15 08:22:05;;;;;;;9.55;5.47;;;742.80;1484.80;;;;;;5134283;27;20031;-74
2021/09/15 08:24:30;;;;;;;8.13;5.13;;;768.00;1433.60;;;;;;5115906;27;20038;-73
2021/09/15 08:26:56;;;;;;;6.05;5.40;;;768.70;1356.80;;;;;;5134710;27;20033;-71
2021/09/15 08:29:22;;;;;;;9.43;5.43;;;793.90;1305.60;;;;;;5134168;27;20030;-73
2021/09/15 08:31:48;;;;;;;11.30;5.50;;;819.30;1280.00;;;;;;5134243;27;20414;-73
2021/09/15 08:34:14;;;;;;;7.95;5.05;;;820.00;1203.20;;;;;;5128954;27;20030;-73
2021/09/15 08:36:39;;;;;;;7.07;5.28;;;845.60;1126.40;;;;;;5113816;28;20026;-73
2021/09/15 08:39:05;;;;;;;7.30;5.70;;;871.20;1049.60;;;;;;5113515;28;20027;-74
2021/09/15 08:41:31;;;;;;;7.88;5.70;;;896.50;998.40;;;;;;5112442;28;20036;-74
2021/09/15 08:43:57;;;;;;;9.90;5.10;;;922.40;947.20;;;;;;5113657;28;20103;-72
2021/09/15 08:46:24;;;;;;;6.68;5.28;;;947.80;896.00;;;;;;5113025;27;20040;-74
2021/09/15 08:48:50;;;;;;;8.77;5.00;;;973.20;896.00;;;;;;5113806;28;20031;-71
2021/09/15 08:51:23;;;;;;;6.70;5.57;;;999.10;844.80;;;;;;5112519;27;20046;-72
2021/09/15 08:53:49;;;;;;;5.63;4.88;;;1049.60;793.60;;;;;;5113997;28;20080;-72
2021/09/15 08:56:15;;;;;;;7.97;5.50;;;1050.40;742.40;;;;;;5112708;27;20032;-72
2021/09/15 08:58:41;;;;;;;10.02;5.07;;;1075.60;716.80;;;;;;5112408;28;20029;-71
2021/09/15 09:01:18;;;;;;;8.90;5.28;;;1076.10;691.20;;;;;;5112378;27;20037;-71
2021/09/15 09:03:46;;;;;;;7.18;5.18;;;1126.40;665.60;;;;;;5113526;28;20086;-71
2021/09/15 09:06:17;;;;;;;7.32;5.07;;;1127.00;640.00;;;;;;5133028;27;20496;-72
2021/09/15 09:08:45;;;;;;;7.38;5.00;;;1126.90;614.40;;;;;;5134427;27;20031;-72
2021/09/15 09:11:13;;;;;;;8.35;5.10;;;1152.30;588.80;;;;;;5132353;27;20429;-71
2021/09/15 09:14:06;;;;;;;8.55;5.13;;;1177.90;537.60;;;;;;5133839;27;20031;-71
2021/09/15 09:16:48;;;;;;;8.57;5.20;;;1178.40;537.60;;;;;;5129571;27;20405;-72
2021/09/15 09:19:16;;;;;;;8.80;4.88;;;1178.50;512.00;;;;;;5132819;27;20077;-70
2021/09/15 09:21:50;;;;;;;8.18;4.72;;;1203.50;512.00;;;;;;5114704;27;20111;-72
2021/09/15 09:24:25;;;;;;;5.80;5.07;;;1203.60;512.00;;;;;;5132904;27;20035;-71
2021/09/15 09:27:02;;;;;;;5.97;5.35;;;1228.80;512.00;;;;;;5133458;27;20063;-71
2021/09/15 09:29:31;;;;;;;8.00;4.88;;;1229.30;486.40;;;;;;5133469;27;20030;-71
2021/09/15 09:32:08;;;;;;;8.48;5.47;;;1254.50;486.40;;;;;;5132218;27;20065;-72
2021/09/15 09:34:50;;;;;;;8.85;5.50;;;1254.80;486.40;;;;;;5114620;27;20031;-72
2021/09/15 09:37:19;;;;;;;8.43;5.35;;;1254.90;486.40;;;;;;5133012;27;20485;-74
2021/09/15 09:39:51;;;;;;;7.32;4.90;;;1255.20;486.40;;;;;;5132816;27;20034;-72
2021/09/15 09:42:22;;;;;;;6.55;4.90;;;1280.80;486.40;;;;;;5132850;27;20027;-73
2021/09/15 09:45:04;;;;;;;7.72;4.78;;;1305.90;486.40;;;;;;5133379;27;20038;-72
2021/09/15 09:47:30;;;;;;;8.18;5.13;;;1305.60;486.40;;;;;;5133039;27;20030;-72
2021/09/15 09:50:09;;;;;;;7.20;4.88;;;1305.90;486.40;;;;;;5132740;27;20082;-72
2021/09/15 09:52:54;;;;;;;6.55;4.82;;;1306.40;486.40;;;;;;5133135;27;20384;-70
2021/09/15 09:55:20;;;;;;;9.77;4.57;;;1280.80;486.40;;;;;;5132130;27;20031;-71
2021/09/15 09:57:51;;;;;;;7.03;4.85;;;1306.40;486.40;;;;;;5133511;27;20050;-72
2021/09/15 10:00:22;;;;;;;5.65;4.40;;;1331.30;512.00;;;;;;5132113;27;20036;-72
2021/09/15 10:02:48;;;;;;;5.95;4.40;;;1331.80;512.00;;;;;;5132721;28;20603;-73
2021/09/15 10:05:15;;;;;;;5.78;5.05;;;1331.80;512.00;;;;;;5132157;27;20039;-72
2021/09/15 10:07:43;;;;;;;7.35;5.03;;;1332.00;512.00;;;;;;5132709;28;20008;-73
2021/09/15 10:10:18;;;;;;;5.30;4.35;;;1306.40;486.40;;;;;;5131481;27;20032;-73
2021/09/15 10:12:45;;;;;;;6.50;4.65;;;1331.80;512.00;;;;;;5132766;28;20096;-72
2021/09/15 10:15:12;;;;;;;8.27;4.75;;;1332.10;512.00;;;;;;5113549;27;20023;-73
2021/09/15 10:17:58;;;;;;;10.10;4.78;;;1356.80;537.60;;;;;;5131778;28;20026;-72
2021/09/15 10:20:30;;;;;;;8.15;4.13;;;1356.80;537.60;;;;;;5129146;27;20420;-72
2021/09/15 10:22:56;;;;;;;4.45;4.05;;;1357.40;537.60;;;;;;5133224;27;20031;-72
2021/09/15 10:25:39;;;;;;;5.22;4.32;;;1356.80;537.60;;;;;;5136054;27;20073;-74
2021/09/15 10:28:10;;;;;;;7.60;4.28;;;1357.00;537.60;;;;;;5136478;27;20023;-73
2021/09/15 10:30:43;;;;;;;4.90;3.88;;;1357.10;537.60;;;;;;5135421;27;20484;-73
2021/09/15 10:33:38;;;;;;;6.50;3.90;;;1332.00;512.00;;;;;;5113861;27;20164;-72
2021/09/15 10:36:13;;;;;;;4.25;3.67;;;1356.80;537.60;;;;;;5134998;27;20032;-72
2021/09/15 10:38:55;;;;;;;6.82;4.05;;;1332.00;512.00;;;;;;5136202;27;20456;-72
2021/09/15 10:41:33;;;;;;;5.28;3.90;;;1357.10;537.60;;;;;;5133652;27;20147;-71
2021/09/15 10:44:04;;;;;;;6.88;4.15;;;1356.80;537.60;;;;;;5133702;27;20016;-71
2021/09/15 10:46:31;;;;;;;5.30;4.47;;;1332.10;512.00;;;;;;5135945;27;20122;-71
2021/09/15 10:49:16;;;;;;;11.13;6.10;;;1331.80;512.00;;;;;;5136337;27;20395;-72
2021/09/15 10:51:42;;;;;;;21.73;14.80;;;1356.80;537.60;;;;;;5117592;27;20035;-72
2021/09/15 10:54:42;;;;;;;21.40;19.27;;;1331.30;512.00;;;;;;5135740;27;20479;-72
2021/09/15 10:57:15;;;;;;;6.93;4.20;;;1331.30;512.00;;;;;;5135580;27;20035;-72
2021/09/15 11:00:06;;;;;;;6.43;4.00;;;1331.80;512.00;;;;;;5117572;27;20043;-72
2021/09/15 11:02:33;;;;;;;7.43;4.18;;;1331.50;512.00;;;;;;5136147;27;20026;-73
2021/09/15 11:05:20;;;;;;;8.07;6.68;;;1332.00;512.00;;;;;;5136430;27;20023;-71
2021/09/15 11:07:45;;;;;;;35.40;31.90;;;1357.60;537.60;;;;;;5137432;27;20118;-73
2021/09/15 11:10:34;;;;;;;7.85;5.63;;;1357.70;537.60;;;;;;5137386;27;20051;-72
2021/09/15 11:13:00;;;;;;;7.53;4.45;;;1357.30;537.60;;;;;;5137100;27;20067;-72
2021/09/15 11:15:28;;;;;;;4.63;4.18;;;1357.30;537.60;;;;;;5137301;27;20027;-73
2021/09/15 11:17:55;;;;;;;16.58;13.57;;;1357.60;537.60;;;;;;5137282;27;20029;-73
2021/09/15 11:20:22;;;;;;;34.65;29.50;;;1382.80;563.20;;;;;;5136339;27;20027;-69
2021/09/15 11:22:49;;;;;;;24.02;18.75;;;1382.70;563.20;;;;;;5135282;27;20502;-72
2021/09/15 11:25:25;;;;;;;9.35;6.75;;;1357.70;537.60;;;;;;5128919;27;20035;-72
2021/09/15 11:28:12;;;;;;;11.32;8.55;;;1357.60;537.60;;;;;;5131284;27;20026;-72
2021/09/15 11:31:00;;;;;;;28.40;25.58;;;1382.70;563.20;;;;;;5132475;27;20019;-71
2021/09/15 11:33:25;;;;;;;24.60;22.27;;;1383.00;563.20;;;;;;5133287;27;20168;-69
2021/09/15 11:35:56;;;;;;;10.70;9.38;;;1382.70;563.20;;;;;;5130063;27;20106;-71
2021/09/15 11:38:25;;;;;;;25.38;22.92;;;1357.60;537.60;;;;;;5114793;27;20031;-70
2021/09/15 11:40:51;;;;;;;5.90;4.47;;;1357.70;537.60;;;;;;5135209;27;20365;-72
2021/09/15 11:43:19;;;;;;;8.70;4.88;;;1357.00;537.60;;;;;;5134927;27;20025;-72
2021/09/15 11:45:47;;;;;;;5.47;4.65;;;1306.40;486.40;;;;;;5135511;27;20420;-72
2021/09/15 11:48:27;;;;;;;6.63;4.30;;;1356.80;537.60;;;;;;5134645;27;20046;-72
2021/09/15 11:50:52;;;;;;;6.78;4.25;;;1331.80;512.00;;;;;;5134702;27;20145;-70
2021/09/15 11:53:19;;;;;;;6.30;4.28;;;1331.30;512.00;;;;;;5134601;27;20110;-72
2021/09/15 11:55:50;;;;;;;5.60;4.30;;;1306.10;486.40;;;;;;5135376;27;20039;-69
2021/09/15 11:58:17;;;;;;;8.70;6.50;;;1306.20;486.40;;;;;;5134924;27;20031;-70
2021/09/15 12:00:43;;;;;;;6.97;4.72;;;1305.90;486.40;;;;;;5135234;27;20027;-69
2021/09/15 12:03:12;;;;;;;10.02;5.80;;;1305.80;486.40;;;;;;5134340;27;20027;-68
2021/09/15 12:05:41;;;;;;;8.80;4.10;;;1255.30;486.40;;;;;;5133163;27;20502;-72
2021/09/15 12:08:07;;;;;;;8.00;4.63;;;1280.80;486.40;;;;;;5133517;27;20367;-70
2021/09/15 12:10:33;;;;;;;8.80;4.65;;;1280.90;486.40;;;;;;5133629;27;20031;-71
2021/09/15 12:13:00;;;;;;;24.15;19.33;;;1305.60;486.40;;;;;;5133144;27;20102;-71
2021/09/15 12:15:26;;;;;;;35.83;31.70;;;1280.60;486.40;;;;;;5133602;27;20031;-70
2021/09/15 12:17:58;;;;;;;8.20;5.10;;;1280.90;486.40;;;;;;5115185;27;20491;-72
2021/09/15 12:20:48;;;;;;;6.18;4.20;;;1280.30;486.40;;;;;;5132919;27;20045;-70
2021/09/15 12:23:16;;;;;;;5.30;4.60;;;1305.60;486.40;;;;;;5132593;27;20012;-71
2021/09/15 12:25:55;;;;;;;6.07;4.40;;;1280.60;486.40;;;;;;5113623;27;20031;-69
2021/09/15 12:28:23;;;;;;;5.38;4.40;;;1280.80;486.40;;;;;;5115853;27;20118;-68
2021/09/15 12:30:49;;;;;;;11.93;4.45;;;1254.70;486.40;;;;;;5133316;27;20028;-70
2021/09/15 12:33:29;;;;;;;6.57;4.40;;;1254.50;486.40;;;;;;5132786;27;20088;-71